sensor_id;sensor_type;location;lat;lon;timestamp;P1;durP1;ratioP1;P2;durP2;ratioP2
4468;SDS011;2247;42.666;23.292;2023-12-20T00:02:04;96.70;;;47.03;;
4468;SDS011;2247;42.666;23.292;2023-12-20T00:04:31;80.07;;;43.10;;
4468;SDS011;2247;42.666;23.292;2023-12-20T00:06:58;79.80;;;41.80;;
4468;SDS011;2247;42.666;23.292;2023-12-20T00:09:25;82.17;;;41.10;;
4468;SDS011;2247;42.666;23.292;2023-12-20T00:11:54;67.93;;;37.60;;
4468;SDS011;2247;42.666;23.292;2023-12-20T00:14:21;70.90;;;37.13;;
4468;SDS011;2247;42.666;23.292;2023-12-20T00:16:48;74.47;;;35.97;;
4468;SDS011;2247;42.666;23.292;2023-12-20T00:19:14;66.70;;;36.03;;
4468;SDS011;2247;42.666;23.292;2023-12-20T00:21:41;63.30;;;34.27;;
4468;SDS011;2247;42.666;23.292;2023-12-20T00:24:08;68.83;;;35.73;;
4468;SDS011;2247;42.666;23.292;2023-12-20T00:26:35;77.30;;;36.30;;
4468;SDS011;2247;42.666;23.292;2023-12-20T00:29:03;70.40;;;33.37;;
4468;SDS011;2247;42.666;23.292;2023-12-20T00:31:30;66.20;;;35.57;;
4468;SDS011;2247;42.666;23.292;2023-12-20T00:33:57;58.30;;;31.97;;
4468;SDS011;2247;42.666;23.292;2023-12-20T00:36:24;59.77;;;32.87;;
4468;SDS011;2247;42.666;23.292;2023-12-20T00:38:51;62.57;;;31.90;;
4468;SDS011;2247;42.666;23.292;2023-12-20T00:41:18;56.93;;;28.93;;
4468;SDS011;2247;42.666;23.292;2023-12-20T00:43:45;67.20;;;33.53;;
4468;SDS011;2247;42.666;23.292;2023-12-20T00:46:13;60.93;;;32.80;;
4468;SDS011;2247;42.666;23.292;2023-12-20T00:48:40;58.83;;;32.97;;
4468;SDS011;2247;42.666;23.292;2023-12-20T00:51:10;73.47;;;38.00;;
4468;SDS011;2247;42.666;23.292;2023-12-20T00:53:37;65.30;;;33.97;;
4468;SDS011;2247;42.666;23.292;2023-12-20T00:56:04;56.13;;;28.13;;
4468;SDS011;2247;42.666;23.292;2023-12-20T00:58:31;52.20;;;28.80;;
4468;SDS011;2247;42.666;23.292;2023-12-20T01:00:58;53.63;;;28.50;;
4468;SDS011;2247;42.666;23.292;2023-12-20T01:03:27;55.23;;;29.43;;
4468;SDS011;2247;42.666;23.292;2023-12-20T01:05:54;55.37;;;27.63;;
4468;SDS011;2247;42.666;23.292;2023-12-20T01:08:21;56.17;;;28.07;;
4468;SDS011;2247;42.666;23.292;2023-12-20T01:10:48;54.73;;;28.47;;
4468;SDS011;2247;42.666;23.292;2023-12-20T01:13:15;56.57;;;29.50;;
4468;SDS011;2247;42.666;23.292;2023-12-20T01:15:42;51.50;;;27.83;;
4468;SDS011;2247;42.666;23.292;2023-12-20T01:18:09;44.43;;;23.80;;
4468;SDS011;2247;42.666;23.292;2023-12-20T01:20:37;48.43;;;25.60;;
4468;SDS011;2247;42.666;23.292;2023-12-20T01:23:04;45.40;;;25.03;;
4468;SDS011;2247;42.666;23.292;2023-12-20T01:25:31;45.23;;;25.17;;
4468;SDS011;2247;42.666;23.292;2023-12-20T01:27:58;49.27;;;25.97;;
4468;SDS011;2247;42.666;23.292;2023-12-20T01:30:25;34.93;;;21.63;;
4468;SDS011;2247;42.666;23.292;2023-12-20T01:32:52;42.97;;;21.90;;
4468;SDS011;2247;42.666;23.292;2023-12-20T01:35:19;44.07;;;23.13;;
4468;SDS011;2247;42.666;23.292;2023-12-20T01:37:47;45.90;;;22.43;;
4468;SDS011;2247;42.666;23.292;2023-12-20T01:40:14;43.87;;;23.73;;
4468;SDS011;2247;42.666;23.292;2023-12-20T01:42:41;44.20;;;22.87;;
4468;SDS011;2247;42.666;23.292;2023-12-20T01:45:08;45.90;;;22.73;;
4468;SDS011;2247;42.666;23.292;2023-12-20T01:47:36;39.80;;;22.03;;
4468;SDS011;2247;42.666;23.292;2023-12-20T01:50:03;34.33;;;19.13;;
4468;SDS011;2247;42.666;23.292;2023-12-20T01:52:33;37.23;;;20.37;;
4468;SDS011;2247;42.666;23.292;2023-12-20T01:55:03;36.73;;;20.27;;
4468;SDS011;2247;42.666;23.292;2023-12-20T01:57:38;36.80;;;20.57;;
4468;SDS011;2247;42.666;23.292;2023-12-20T02:00:06;39.73;;;19.93;;
4468;SDS011;2247;42.666;23.292;2023-12-20T02:02:34;43.27;;;20.77;;
4468;SDS011;2247;42.666;23.292;2023-12-20T02:05:04;40.60;;;20.07;;
4468;SDS011;2247;42.666;23.292;2023-12-20T02:07:32;38.43;;;19.20;;
4468;SDS011;2247;42.666;23.292;2023-12-20T02:10:00;35.43;;;19.80;;
4468;SDS011;2247;42.666;23.292;2023-12-20T02:12:28;34.83;;;20.23;;
4468;SDS011;2247;42.666;23.292;2023-12-20T02:14:55;33.27;;;19.23;;
4468;SDS011;2247;42.666;23.292;2023-12-20T02:17:22;36.87;;;19.00;;
4468;SDS011;2247;42.666;23.292;2023-12-20T02:19:49;35.27;;;18.60;;
4468;SDS011;2247;42.666;23.292;2023-12-20T02:22:18;35.87;;;19.83;;
4468;SDS011;2247;42.666;23.292;2023-12-20T02:24:45;35.97;;;19.43;;
4468;SDS011;2247;42.666;23.292;2023-12-20T02:27:12;38.97;;;22.17;;
4468;SDS011;2247;42.666;23.292;2023-12-20T02:29:39;35.83;;;21.03;;
4468;SDS011;2247;42.666;23.292;2023-12-20T02:32:06;40.10;;;20.57;;
4468;SDS011;2247;42.666;23.292;2023-12-20T02:34:33;40.93;;;21.30;;
4468;SDS011;2247;42.666;23.292;2023-12-20T02:37:00;47.67;;;22.13;;
4468;SDS011;2247;42.666;23.292;2023-12-20T02:39:28;39.70;;;21.13;;
4468;SDS011;2247;42.666;23.292;2023-12-20T02:41:55;40.93;;;21.13;;
4468;SDS011;2247;42.666;23.292;2023-12-20T02:44:22;37.50;;;20.17;;
4468;SDS011;2247;42.666;23.292;2023-12-20T02:46:49;39.07;;;21.07;;
4468;SDS011;2247;42.666;23.292;2023-12-20T02:49:16;41.93;;;21.67;;
4468;SDS011;2247;42.666;23.292;2023-12-20T02:51:43;33.90;;;19.00;;
4468;SDS011;2247;42.666;23.292;2023-12-20T02:54:11;39.13;;;19.57;;
4468;SDS011;2247;42.666;23.292;2023-12-20T02:56:40;32.10;;;18.20;;
4468;SDS011;2247;42.666;23.292;2023-12-20T02:59:07;35.40;;;18.67;;
4468;SDS011;2247;42.666;23.292;2023-12-20T03:01:34;42.10;;;19.53;;
4468;SDS011;2247;42.666;23.292;2023-12-20T03:04:01;31.27;;;18.03;;
4468;SDS011;2247;42.666;23.292;2023-12-20T03:06:28;34.03;;;19.10;;
4468;SDS011;2247;42.666;23.292;2023-12-20T03:08:55;59.13;;;31.20;;
4468;SDS011;2247;42.666;23.292;2023-12-20T03:11:22;52.20;;;26.80;;
4468;SDS011;2247;42.666;23.292;2023-12-20T03:13:54;58.93;;;32.23;;
4468;SDS011;2247;42.666;23.292;2023-12-20T03:16:21;72.10;;;34.37;;
4468;SDS011;2247;42.666;23.292;2023-12-20T03:18:48;59.73;;;31.80;;
4468;SDS011;2247;42.666;23.292;2023-12-20T03:21:16;68.83;;;36.33;;
4468;SDS011;2247;42.666;23.292;2023-12-20T03:23:42;67.73;;;33.87;;
4468;SDS011;2247;42.666;23.292;2023-12-20T03:26:09;65.53;;;33.57;;
4468;SDS011;2247;42.666;23.292;2023-12-20T03:28:36;57.17;;;29.93;;
4468;SDS011;2247;42.666;23.292;2023-12-20T03:31:05;49.20;;;27.30;;
4468;SDS011;2247;42.666;23.292;2023-12-20T03:33:31;56.70;;;27.50;;
4468;SDS011;2247;42.666;23.292;2023-12-20T03:35:58;41.63;;;22.37;;
4468;SDS011;2247;42.666;23.292;2023-12-20T03:38:25;40.37;;;22.63;;
4468;SDS011;2247;42.666;23.292;2023-12-20T03:40:52;71.57;;;38.70;;
4468;SDS011;2247;42.666;23.292;2023-12-20T03:43:19;105.43;;;51.33;;
4468;SDS011;2247;42.666;23.292;2023-12-20T03:45:46;118.10;;;56.30;;
4468;SDS011;2247;42.666;23.292;2023-12-20T03:48:14;109.63;;;54.47;;
4468;SDS011;2247;42.666;23.292;2023-12-20T03:50:41;116.20;;;56.20;;
4468;SDS011;2247;42.666;23.292;2023-12-20T03:53:08;117.43;;;58.97;;
4468;SDS011;2247;42.666;23.292;2023-12-20T03:55:35;108.37;;;57.57;;
4468;SDS011;2247;42.666;23.292;2023-12-20T03:58:02;127.37;;;60.43;;
4468;SDS011;2247;42.666;23.292;2023-12-20T04:00:29;128.33;;;58.97;;
4468;SDS011;2247;42.666;23.292;2023-12-20T04:02:56;113.27;;;55.80;;
4468;SDS011;2247;42.666;23.292;2023-12-20T04:05:25;106.60;;;51.93;;
4468;SDS011;2247;42.666;23.292;2023-12-20T04:07:52;107.27;;;52.93;;
4468;SDS011;2247;42.666;23.292;2023-12-20T04:10:19;106.23;;;49.47;;
4468;SDS011;2247;42.666;23.292;2023-12-20T04:12:46;89.37;;;44.40;;
4468;SDS011;2247;42.666;23.292;2023-12-20T04:15:13;80.23;;;42.10;;
4468;SDS011;2247;42.666;23.292;2023-12-20T04:17:40;79.87;;;40.40;;
4468;SDS011;2247;42.666;23.292;2023-12-20T04:20:07;80.47;;;39.23;;
4468;SDS011;2247;42.666;23.292;2023-12-20T04:22:36;69.87;;;36.77;;
4468;SDS011;2247;42.666;23.292;2023-12-20T04:25:03;62.07;;;33.80;;
4468;SDS011;2247;42.666;23.292;2023-12-20T04:27:30;75.50;;;38.60;;
4468;SDS011;2247;42.666;23.292;2023-12-20T04:29:57;80.57;;;42.60;;
4468;SDS011;2247;42.666;23.292;2023-12-20T04:32:24;75.47;;;38.63;;
4468;SDS011;2247;42.666;23.292;2023-12-20T04:34:51;72.13;;;34.63;;
4468;SDS011;2247;42.666;23.292;2023-12-20T04:37:18;72.47;;;35.83;;
4468;SDS011;2247;42.666;23.292;2023-12-20T04:39:46;65.93;;;34.97;;
4468;SDS011;2247;42.666;23.292;2023-12-20T04:42:13;76.43;;;39.27;;
4468;SDS011;2247;42.666;23.292;2023-12-20T04:44:40;73.20;;;39.47;;
4468;SDS011;2247;42.666;23.292;2023-12-20T04:47:08;79.73;;;40.77;;
4468;SDS011;2247;42.666;23.292;2023-12-20T04:49:35;73.33;;;37.93;;
4468;SDS011;2247;42.666;23.292;2023-12-20T04:52:03;67.00;;;36.50;;
4468;SDS011;2247;42.666;23.292;2023-12-20T04:54:31;70.37;;;36.00;;
4468;SDS011;2247;42.666;23.292;2023-12-20T04:56:59;73.90;;;36.53;;
4468;SDS011;2247;42.666;23.292;2023-12-20T04:59:26;66.73;;;36.57;;
4468;SDS011;2247;42.666;23.292;2023-12-20T05:01:53;67.63;;;34.07;;
4468;SDS011;2247;42.666;23.292;2023-12-20T05:04:20;62.37;;;33.50;;
4468;SDS011;2247;42.666;23.292;2023-12-20T05:06:46;72.17;;;37.50;;
4468;SDS011;2247;42.666;23.292;2023-12-20T05:09:15;78.80;;;41.20;;
4468;SDS011;2247;42.666;23.292;2023-12-20T05:11:41;96.70;;;46.90;;
4468;SDS011;2247;42.666;23.292;2023-12-20T05:14:10;94.47;;;48.77;;
4468;SDS011;2247;42.666;23.292;2023-12-20T05:16:37;109.07;;;53.17;;
4468;SDS011;2247;42.666;23.292;2023-12-20T05:19:03;76.30;;;39.00;;
4468;SDS011;2247;42.666;23.292;2023-12-20T05:21:31;66.10;;;34.70;;
4468;SDS011;2247;42.666;23.292;2023-12-20T05:23:58;76.80;;;38.07;;
4468;SDS011;2247;42.666;23.292;2023-12-20T05:26:26;90.57;;;44.70;;
4468;SDS011;2247;42.666;23.292;2023-12-20T05:28:54;94.73;;;44.40;;
4468;SDS011;2247;42.666;23.292;2023-12-20T05:31:23;95.87;;;46.53;;
4468;SDS011;2247;42.666;23.292;2023-12-20T05:33:50;99.13;;;46.87;;
4468;SDS011;2247;42.666;23.292;2023-12-20T05:36:18;101.60;;;47.10;;
4468;SDS011;2247;42.666;23.292;2023-12-20T05:38:45;102.97;;;49.60;;
4468;SDS011;2247;42.666;23.292;2023-12-20T05:41:12;109.00;;;50.37;;
4468;SDS011;2247;42.666;23.292;2023-12-20T05:43:39;103.70;;;49.10;;
4468;SDS011;2247;42.666;23.292;2023-12-20T05:46:06;99.97;;;47.60;;
4468;SDS011;2247;42.666;23.292;2023-12-20T05:48:34;107.20;;;50.03;;
4468;SDS011;2247;42.666;23.292;2023-12-20T05:51:01;97.13;;;46.23;;
4468;SDS011;2247;42.666;23.292;2023-12-20T05:53:28;104.90;;;47.70;;
4468;SDS011;2247;42.666;23.292;2023-12-20T05:55:55;104.73;;;48.70;;
4468;SDS011;2247;42.666;23.292;2023-12-20T05:58:22;99.77;;;48.33;;
4468;SDS011;2247;42.666;23.292;2023-12-20T06:00:49;99.30;;;47.50;;
4468;SDS011;2247;42.666;23.292;2023-12-20T06:03:16;98.63;;;47.80;;
4468;SDS011;2247;42.666;23.292;2023-12-20T06:05:44;105.50;;;46.40;;
4468;SDS011;2247;42.666;23.292;2023-12-20T06:08:11;104.90;;;47.30;;
4468;SDS011;2247;42.666;23.292;2023-12-20T06:10:38;105.70;;;47.40;;
4468;SDS011;2247;42.666;23.292;2023-12-20T06:13:05;106.70;;;48.53;;
4468;SDS011;2247;42.666;23.292;2023-12-20T06:15:33;113.33;;;46.60;;
4468;SDS011;2247;42.666;23.292;2023-12-20T06:18:00;101.97;;;45.80;;
4468;SDS011;2247;42.666;23.292;2023-12-20T06:20:27;136.50;;;47.47;;
4468;SDS011;2247;42.666;23.292;2023-12-20T06:22:56;100.87;;;45.37;;
4468;SDS011;2247;42.666;23.292;2023-12-20T06:25:23;102.07;;;43.97;;
4468;SDS011;2247;42.666;23.292;2023-12-20T06:27:50;92.57;;;44.63;;
4468;SDS011;2247;42.666;23.292;2023-12-20T06:30:17;94.07;;;42.87;;
4468;SDS011;2247;42.666;23.292;2023-12-20T06:32:44;105.10;;;44.80;;
4468;SDS011;2247;42.666;23.292;2023-12-20T06:35:12;97.30;;;42.33;;
4468;SDS011;2247;42.666;23.292;2023-12-20T06:37:39;95.40;;;43.73;;
4468;SDS011;2247;42.666;23.292;2023-12-20T06:40:09;92.27;;;41.80;;
4468;SDS011;2247;42.666;23.292;2023-12-20T06:42:37;96.37;;;42.80;;
4468;SDS011;2247;42.666;23.292;2023-12-20T06:45:04;93.10;;;42.20;;
4468;SDS011;2247;42.666;23.292;2023-12-20T06:47:32;105.27;;;43.47;;
4468;SDS011;2247;42.666;23.292;2023-12-20T06:49:59;104.40;;;43.13;;
4468;SDS011;2247;42.666;23.292;2023-12-20T06:52:26;101.23;;;43.80;;
4468;SDS011;2247;42.666;23.292;2023-12-20T06:54:53;90.40;;;41.53;;
4468;SDS011;2247;42.666;23.292;2023-12-20T06:57:21;95.57;;;43.37;;
4468;SDS011;2247;42.666;23.292;2023-12-20T06:59:48;103.77;;;43.97;;
4468;SDS011;2247;42.666;23.292;2023-12-20T07:02:17;92.70;;;43.00;;
4468;SDS011;2247;42.666;23.292;2023-12-20T07:04:44;106.63;;;43.97;;
4468;SDS011;2247;42.666;23.292;2023-12-20T07:07:11;103.07;;;43.40;;
4468;SDS011;2247;42.666;23.292;2023-12-20T07:09:38;95.63;;;42.40;;
4468;SDS011;2247;42.666;23.292;2023-12-20T07:12:07;105.93;;;44.47;;
4468;SDS011;2247;42.666;23.292;2023-12-20T07:14:36;96.40;;;42.30;;
4468;SDS011;2247;42.666;23.292;2023-12-20T07:17:03;103.70;;;44.90;;
4468;SDS011;2247;42.666;23.292;2023-12-20T07:19:32;102.97;;;46.53;;
4468;SDS011;2247;42.666;23.292;2023-12-20T07:21:59;118.63;;;49.70;;
4468;SDS011;2247;42.666;23.292;2023-12-20T07:24:26;110.83;;;49.80;;
4468;SDS011;2247;42.666;23.292;2023-12-20T07:26:53;121.77;;;51.17;;
4468;SDS011;2247;42.666;23.292;2023-12-20T07:29:19;113.37;;;48.40;;
4468;SDS011;2247;42.666;23.292;2023-12-20T07:31:48;110.17;;;49.70;;
4468;SDS011;2247;42.666;23.292;2023-12-20T07:34:17;132.50;;;49.10;;
4468;SDS011;2247;42.666;23.292;2023-12-20T07:36:44;118.93;;;49.27;;
4468;SDS011;2247;42.666;23.292;2023-12-20T07:39:11;115.50;;;47.83;;
4468;SDS011;2247;42.666;23.292;2023-12-20T07:41:38;128.17;;;52.90;;
4468;SDS011;2247;42.666;23.292;2023-12-20T07:44:05;118.73;;;48.97;;
4468;SDS011;2247;42.666;23.292;2023-12-20T07:46:33;116.37;;;51.40;;
4468;SDS011;2247;42.666;23.292;2023-12-20T07:49:01;125.23;;;50.60;;
4468;SDS011;2247;42.666;23.292;2023-12-20T07:51:28;126.20;;;51.00;;
4468;SDS011;2247;42.666;23.292;2023-12-20T07:53:55;133.23;;;53.17;;
4468;SDS011;2247;42.666;23.292;2023-12-20T07:56:22;129.20;;;53.57;;
4468;SDS011;2247;42.666;23.292;2023-12-20T07:58:49;142.70;;;53.60;;
4468;SDS011;2247;42.666;23.292;2023-12-20T08:01:16;125.30;;;52.90;;
4468;SDS011;2247;42.666;23.292;2023-12-20T08:03:43;136.67;;;54.30;;
4468;SDS011;2247;42.666;23.292;2023-12-20T08:06:13;151.07;;;57.07;;
4468;SDS011;2247;42.666;23.292;2023-12-20T08:08:40;142.90;;;53.83;;
4468;SDS011;2247;42.666;23.292;2023-12-20T08:11:06;134.03;;;52.30;;
4468;SDS011;2247;42.666;23.292;2023-12-20T08:13:33;143.27;;;55.53;;
4468;SDS011;2247;42.666;23.292;2023-12-20T08:16:00;129.03;;;53.90;;
4468;SDS011;2247;42.666;23.292;2023-12-20T08:18:28;135.37;;;54.03;;
4468;SDS011;2247;42.666;23.292;2023-12-20T08:20:55;138.10;;;54.90;;
4468;SDS011;2247;42.666;23.292;2023-12-20T08:23:23;135.90;;;56.10;;
4468;SDS011;2247;42.666;23.292;2023-12-20T08:25:50;140.87;;;56.10;;
4468;SDS011;2247;42.666;23.292;2023-12-20T08:28:17;129.17;;;55.20;;
4468;SDS011;2247;42.666;23.292;2023-12-20T08:30:44;125.27;;;51.77;;
4468;SDS011;2247;42.666;23.292;2023-12-20T08:33:11;127.73;;;54.87;;
4468;SDS011;2247;42.666;23.292;2023-12-20T08:35:38;121.97;;;55.10;;
4468;SDS011;2247;42.666;23.292;2023-12-20T08:38:05;115.40;;;53.30;;
4468;SDS011;2247;42.666;23.292;2023-12-20T08:40:34;134.83;;;53.23;;
4468;SDS011;2247;42.666;23.292;2023-12-20T08:43:01;137.50;;;57.80;;
4468;SDS011;2247;42.666;23.292;2023-12-20T08:45:28;131.87;;;54.90;;
4468;SDS011;2247;42.666;23.292;2023-12-20T08:47:55;135.20;;;54.47;;
4468;SDS011;2247;42.666;23.292;2023-12-20T08:50:22;127.53;;;54.77;;
4468;SDS011;2247;42.666;23.292;2023-12-20T08:52:50;124.70;;;53.87;;
4468;SDS011;2247;42.666;23.292;2023-12-20T08:55:17;122.63;;;55.43;;
4468;SDS011;2247;42.666;23.292;2023-12-20T08:57:46;139.27;;;57.57;;
4468;SDS011;2247;42.666;23.292;2023-12-20T09:00:15;131.53;;;54.37;;
4468;SDS011;2247;42.666;23.292;2023-12-20T09:02:43;118.40;;;54.23;;
4468;SDS011;2247;42.666;23.292;2023-12-20T09:05:10;115.10;;;53.43;;
4468;SDS011;2247;42.666;23.292;2023-12-20T09:07:36;127.77;;;55.97;;
4468;SDS011;2247;42.666;23.292;2023-12-20T09:10:03;124.70;;;55.83;;
4468;SDS011;2247;42.666;23.292;2023-12-20T09:12:30;112.23;;;52.83;;
4468;SDS011;2247;42.666;23.292;2023-12-20T09:14:59;120.67;;;54.63;;
4468;SDS011;2247;42.666;23.292;2023-12-20T09:17:27;121.20;;;57.37;;
4468;SDS011;2247;42.666;23.292;2023-12-20T09:19:54;119.10;;;55.10;;
4468;SDS011;2247;42.666;23.292;2023-12-20T09:22:21;118.30;;;54.00;;
4468;SDS011;2247;42.666;23.292;2023-12-20T09:24:48;125.37;;;56.67;;
4468;SDS011;2247;42.666;23.292;2023-12-20T09:27:15;122.37;;;57.13;;
4468;SDS011;2247;42.666;23.292;2023-12-20T09:29:42;118.20;;;56.60;;
4468;SDS011;2247;42.666;23.292;2023-12-20T09:32:10;120.57;;;56.10;;
4468;SDS011;2247;42.666;23.292;2023-12-20T09:34:37;123.77;;;56.90;;
4468;SDS011;2247;42.666;23.292;2023-12-20T09:37:04;127.10;;;58.93;;
4468;SDS011;2247;42.666;23.292;2023-12-20T09:39:32;132.80;;;60.13;;
4468;SDS011;2247;42.666;23.292;2023-12-20T09:42:00;121.47;;;58.37;;
4468;SDS011;2247;42.666;23.292;2023-12-20T09:44:28;128.93;;;57.90;;
4468;SDS011;2247;42.666;23.292;2023-12-20T09:46:55;119.77;;;57.07;;
4468;SDS011;2247;42.666;23.292;2023-12-20T09:49:24;133.97;;;58.87;;
4468;SDS011;2247;42.666;23.292;2023-12-20T09:51:53;121.33;;;57.40;;
4468;SDS011;2247;42.666;23.292;2023-12-20T09:54:21;111.33;;;54.00;;
4468;SDS011;2247;42.666;23.292;2023-12-20T09:56:48;118.10;;;56.83;;
4468;SDS011;2247;42.666;23.292;2023-12-20T09:59:15;121.83;;;56.80;;
4468;SDS011;2247;42.666;23.292;2023-12-20T10:01:43;112.37;;;54.70;;
4468;SDS011;2247;42.666;23.292;2023-12-20T10:04:10;117.97;;;55.77;;
4468;SDS011;2247;42.666;23.292;2023-12-20T10:06:41;112.63;;;54.27;;
4468;SDS011;2247;42.666;23.292;2023-12-20T10:09:09;114.70;;;57.07;;
4468;SDS011;2247;42.666;23.292;2023-12-20T10:11:37;122.37;;;55.97;;
4468;SDS011;2247;42.666;23.292;2023-12-20T10:14:04;118.60;;;55.70;;
4468;SDS011;2247;42.666;23.292;2023-12-20T10:16:32;118.73;;;56.27;;
4468;SDS011;2247;42.666;23.292;2023-12-20T10:19:00;114.57;;;57.33;;
4468;SDS011;2247;42.666;23.292;2023-12-20T10:21:27;123.47;;;56.37;;
4468;SDS011;2247;42.666;23.292;2023-12-20T10:23:56;119.33;;;57.60;;
4468;SDS011;2247;42.666;23.292;2023-12-20T10:26:24;108.90;;;56.90;;
4468;SDS011;2247;42.666;23.292;2023-12-20T10:28:53;114.27;;;56.40;;
4468;SDS011;2247;42.666;23.292;2023-12-20T10:31:29;118.40;;;57.77;;
4468;SDS011;2247;42.666;23.292;2023-12-20T10:33:57;119.87;;;57.90;;
4468;SDS011;2247;42.666;23.292;2023-12-20T10:36:25;132.47;;;56.33;;
4468;SDS011;2247;42.666;23.292;2023-12-20T10:38:53;114.40;;;57.13;;
4468;SDS011;2247;42.666;23.292;2023-12-20T10:41:24;124.70;;;59.50;;
4468;SDS011;2247;42.666;23.292;2023-12-20T10:43:53;131.83;;;59.80;;
4468;SDS011;2247;42.666;23.292;2023-12-20T10:46:22;130.60;;;64.10;;
4468;SDS011;2247;42.666;23.292;2023-12-20T10:48:51;127.83;;;61.73;;
4468;SDS011;2247;42.666;23.292;2023-12-20T10:51:20;128.47;;;61.67;;
4468;SDS011;2247;42.666;23.292;2023-12-20T10:53:49;142.70;;;61.43;;
4468;SDS011;2247;42.666;23.292;2023-12-20T10:56:17;116.10;;;57.10;;
4468;SDS011;2247;42.666;23.292;2023-12-20T10:58:47;109.03;;;53.87;;
4468;SDS011;2247;42.666;23.292;2023-12-20T11:01:35;115.13;;;56.00;;
4468;SDS011;2247;42.666;23.292;2023-12-20T11:04:04;123.93;;;56.93;;
4468;SDS011;2247;42.666;23.292;2023-12-20T11:06:39;122.70;;;57.03;;
4468;SDS011;2247;42.666;23.292;2023-12-20T11:09:13;105.27;;;53.13;;
4468;SDS011;2247;42.666;23.292;2023-12-20T11:11:52;117.90;;;56.10;;
4468;SDS011;2247;42.666;23.292;2023-12-20T11:14:27;110.17;;;52.73;;
4468;SDS011;2247;42.666;23.292;2023-12-20T11:17:05;118.23;;;56.43;;
4468;SDS011;2247;42.666;23.292;2023-12-20T11:19:32;118.50;;;57.37;;
4468;SDS011;2247;42.666;23.292;2023-12-20T11:22:03;121.53;;;55.37;;
4468;SDS011;2247;42.666;23.292;2023-12-20T11:24:31;125.83;;;57.27;;
4468;SDS011;2247;42.666;23.292;2023-12-20T11:26:59;121.27;;;55.57;;
4468;SDS011;2247;42.666;23.292;2023-12-20T11:29:35;113.97;;;53.00;;
4468;SDS011;2247;42.666;23.292;2023-12-20T11:32:04;113.57;;;51.87;;
4468;SDS011;2247;42.666;23.292;2023-12-20T11:34:55;114.53;;;52.37;;
4468;SDS011;2247;42.666;23.292;2023-12-20T11:37:28;112.60;;;52.80;;
4468;SDS011;2247;42.666;23.292;2023-12-20T11:40:00;116.73;;;53.20;;
4468;SDS011;2247;42.666;23.292;2023-12-20T11:42:30;117.00;;;51.87;;
4468;SDS011;2247;42.666;23.292;2023-12-20T11:45:02;118.07;;;52.20;;
4468;SDS011;2247;42.666;23.292;2023-12-20T11:47:30;115.43;;;52.67;;
4468;SDS011;2247;42.666;23.292;2023-12-20T11:49:57;128.33;;;51.47;;
4468;SDS011;2247;42.666;23.292;2023-12-20T11:52:25;106.10;;;48.70;;
4468;SDS011;2247;42.666;23.292;2023-12-20T11:54:52;106.27;;;49.07;;
4468;SDS011;2247;42.666;23.292;2023-12-20T11:57:19;114.83;;;50.00;;
4468;SDS011;2247;42.666;23.292;2023-12-20T11:59:46;118.40;;;49.30;;
4468;SDS011;2247;42.666;23.292;2023-12-20T12:02:15;111.13;;;50.07;;
4468;SDS011;2247;42.666;23.292;2023-12-20T12:04:42;105.40;;;47.57;;
4468;SDS011;2247;42.666;23.292;2023-12-20T12:07:09;107.53;;;48.50;;
4468;SDS011;2247;42.666;23.292;2023-12-20T12:09:35;104.53;;;49.93;;
4468;SDS011;2247;42.666;23.292;2023-12-20T12:12:03;110.40;;;49.17;;
4468;SDS011;2247;42.666;23.292;2023-12-20T12:14:30;109.27;;;48.80;;
4468;SDS011;2247;42.666;23.292;2023-12-20T12:16:57;103.77;;;48.17;;
4468;SDS011;2247;42.666;23.292;2023-12-20T12:19:26;99.73;;;47.20;;
4468;SDS011;2247;42.666;23.292;2023-12-20T12:22:03;103.70;;;48.50;;
4468;SDS011;2247;42.666;23.292;2023-12-20T12:24:31;96.80;;;47.60;;
4468;SDS011;2247;42.666;23.292;2023-12-20T12:26:58;114.80;;;48.53;;
4468;SDS011;2247;42.666;23.292;2023-12-20T12:29:25;100.17;;;46.60;;
4468;SDS011;2247;42.666;23.292;2023-12-20T12:31:52;112.10;;;47.90;;
4468;SDS011;2247;42.666;23.292;2023-12-20T12:34:19;99.27;;;47.63;;
4468;SDS011;2247;42.666;23.292;2023-12-20T12:36:47;95.77;;;47.93;;
4468;SDS011;2247;42.666;23.292;2023-12-20T12:39:15;110.27;;;47.47;;
4468;SDS011;2247;42.666;23.292;2023-12-20T12:41:43;104.83;;;48.30;;
4468;SDS011;2247;42.666;23.292;2023-12-20T12:44:10;97.40;;;46.60;;
4468;SDS011;2247;42.666;23.292;2023-12-20T12:46:37;96.50;;;45.23;;
4468;SDS011;2247;42.666;23.292;2023-12-20T12:49:04;109.77;;;46.37;;
4468;SDS011;2247;42.666;23.292;2023-12-20T12:51:31;110.50;;;49.07;;
4468;SDS011;2247;42.666;23.292;2023-12-20T12:53:59;100.90;;;44.60;;
4468;SDS011;2247;42.666;23.292;2023-12-20T12:56:27;104.63;;;48.33;;
4468;SDS011;2247;42.666;23.292;2023-12-20T12:58:54;97.30;;;47.13;;
4468;SDS011;2247;42.666;23.292;2023-12-20T13:01:21;95.23;;;46.87;;
4468;SDS011;2247;42.666;23.292;2023-12-20T13:03:48;99.47;;;47.57;;
4468;SDS011;2247;42.666;23.292;2023-12-20T13:06:15;99.63;;;46.40;;
4468;SDS011;2247;42.666;23.292;2023-12-20T13:08:42;100.03;;;47.93;;
4468;SDS011;2247;42.666;23.292;2023-12-20T13:11:12;106.70;;;49.77;;
4468;SDS011;2247;42.666;23.292;2023-12-20T13:13:38;111.07;;;50.30;;
4468;SDS011;2247;42.666;23.292;2023-12-20T13:16:06;104.47;;;49.20;;
4468;SDS011;2247;42.666;23.292;2023-12-20T13:18:33;106.50;;;49.47;;
4468;SDS011;2247;42.666;23.292;2023-12-20T13:21:00;118.60;;;50.20;;
4468;SDS011;2247;42.666;23.292;2023-12-20T13:23:27;98.70;;;46.07;;
4468;SDS011;2247;42.666;23.292;2023-12-20T13:25:54;115.10;;;48.40;;
4468;SDS011;2247;42.666;23.292;2023-12-20T13:28:22;106.70;;;48.20;;
4468;SDS011;2247;42.666;23.292;2023-12-20T13:30:49;107.67;;;49.07;;
4468;SDS011;2247;42.666;23.292;2023-12-20T13:33:16;104.93;;;48.63;;
4468;SDS011;2247;42.666;23.292;2023-12-20T13:35:43;98.90;;;48.37;;
4468;SDS011;2247;42.666;23.292;2023-12-20T13:38:10;107.13;;;50.37;;
4468;SDS011;2247;42.666;23.292;2023-12-20T13:40:38;102.73;;;49.30;;
4468;SDS011;2247;42.666;23.292;2023-12-20T13:43:05;102.23;;;47.90;;
4468;SDS011;2247;42.666;23.292;2023-12-20T13:45:34;111.10;;;50.20;;
4468;SDS011;2247;42.666;23.292;2023-12-20T13:48:01;117.77;;;50.77;;
4468;SDS011;2247;42.666;23.292;2023-12-20T13:50:29;117.50;;;49.50;;
4468;SDS011;2247;42.666;23.292;2023-12-20T13:52:56;126.03;;;50.53;;
4468;SDS011;2247;42.666;23.292;2023-12-20T13:55:23;111.73;;;49.50;;
4468;SDS011;2247;42.666;23.292;2023-12-20T13:57:52;121.50;;;49.40;;
4468;SDS011;2247;42.666;23.292;2023-12-20T14:00:19;105.60;;;50.00;;
4468;SDS011;2247;42.666;23.292;2023-12-20T14:02:48;117.03;;;50.53;;
4468;SDS011;2247;42.666;23.292;2023-12-20T14:05:15;108.03;;;49.60;;
4468;SDS011;2247;42.666;23.292;2023-12-20T14:07:42;117.67;;;47.93;;
4468;SDS011;2247;42.666;23.292;2023-12-20T14:10:11;104.40;;;45.90;;
4468;SDS011;2247;42.666;23.292;2023-12-20T14:12:38;104.60;;;49.83;;
4468;SDS011;2247;42.666;23.292;2023-12-20T14:15:06;103.57;;;48.60;;
4468;SDS011;2247;42.666;23.292;2023-12-20T14:17:36;121.87;;;50.70;;
4468;SDS011;2247;42.666;23.292;2023-12-20T14:20:05;113.43;;;50.57;;
4468;SDS011;2247;42.666;23.292;2023-12-20T14:22:33;118.33;;;50.20;;
4468;SDS011;2247;42.666;23.292;2023-12-20T14:25:00;118.27;;;50.13;;
4468;SDS011;2247;42.666;23.292;2023-12-20T14:27:28;112.23;;;51.20;;
4468;SDS011;2247;42.666;23.292;2023-12-20T14:29:54;123.87;;;54.07;;